METAR Data
IDs: Format: Raw Decoded Include TAF

Data at: 2050 UTC 18 Apr 2021

LYUZ 182030Z AUTO 09001KT 9999 SCT020/// BKN024/// OVC034/// 03/01 Q1016